Terminal Aerodrome Forecast
Issued by NWS Sterling, VA

Home | Current Version | Previous Version | Text Only | Print | Product List | Glossary On
Versions: 1 2 3 4 5 6 7 8 9 10 11 12 13 14 15 16 17 18 19 20 21 22 23 24 25 26
000
FTUS41 KLWX 012000 AAA
TAFIAD
TAF AMD
KIAD 012046Z 0121/0224 VRB03KT P6SM FEW045 BKN150
     FM020600 00000KT 5SM BR FEW010 SCT050
     FM020800 00000KT 5SM BR SCT010 BKN050
     FM020900 00000KT 2SM BR SCT010 BKN025
     FM021500 00000KT P6SM BKN030
     FM021800 VRB03KT P6SM BKN040=

USA.gov is the U.S. government's official web portal to all federal, state and local government web resources and services.